sensor_id;sensor_type;location;lat;lon;timestamp;pressure;altitude;pressure_sealevel;temperature;humidity
54870;BME280;40756;-37.950;145.008;2022-08-03T00:00:43;100043.41;;;15.45;43.85
54870;BME280;40756;-37.950;145.008;2022-08-03T00:03:13;100051.25;;;14.55;44.40
54870;BME280;40756;-37.950;145.008;2022-08-03T00:05:44;100033.90;;;15.43;43.47
54870;BME280;40756;-37.950;145.008;2022-08-03T00:08:13;100036.40;;;14.54;43.88
54870;BME280;40756;-37.950;145.008;2022-08-03T00:10:43;100032.92;;;15.45;43.48
54870;BME280;40756;-37.950;145.008;2022-08-03T00:13:12;100029.06;;;15.12;43.31
54870;BME280;40756;-37.950;145.008;2022-08-03T00:15:42;100030.67;;;14.82;43.36
54870;BME280;40756;-37.950;145.008;2022-08-03T00:18:11;100026.07;;;14.70;43.91
54870;BME280;40756;-37.950;145.008;2022-08-03T00:20:41;100018.45;;;15.54;42.56
54870;BME280;40756;-37.950;145.008;2022-08-03T00:23:11;100018.84;;;15.03;42.88
54870;BME280;40756;-37.950;145.008;2022-08-03T00:25:40;100009.11;;;15.21;42.53
54870;BME280;40756;-37.950;145.008;2022-08-03T00:28:10;100014.54;;;14.80;43.26
54870;BME280;40756;-37.950;145.008;2022-08-03T00:30:40;100010.28;;;14.86;42.29
54870;BME280;40756;-37.950;145.008;2022-08-03T00:33:09;100012.31;;;14.48;43.39
54870;BME280;40756;-37.950;145.008;2022-08-03T00:35:39;100018.16;;;14.70;43.17
54870;BME280;40756;-37.950;145.008;2022-08-03T00:38:09;100000.90;;;15.75;41.61
54870;BME280;40756;-37.950;145.008;2022-08-03T00:40:39;100004.24;;;15.12;41.97
54870;BME280;40756;-37.950;145.008;2022-08-03T00:43:10;100000.60;;;15.74;41.54
54870;BME280;40756;-37.950;145.008;2022-08-03T00:45:40;100005.18;;;15.19;41.57
54870;BME280;40756;-37.950;145.008;2022-08-03T00:48:11;100020.67;;;14.72;42.53
54870;BME280;40756;-37.950;145.008;2022-08-03T00:50:43;100021.64;;;15.32;41.52
54870;BME280;40756;-37.950;145.008;2022-08-03T00:53:12;100008.48;;;15.49;41.90
54870;BME280;40756;-37.950;145.008;2022-08-03T00:55:42;99992.73;;;15.57;41.47
54870;BME280;40756;-37.950;145.008;2022-08-03T00:58:12;100009.11;;;15.25;41.29
54870;BME280;40756;-37.950;145.008;2022-08-03T01:00:42;100007.05;;;16.11;40.75
54870;BME280;40756;-37.950;145.008;2022-08-03T01:03:11;100008.36;;;15.99;40.26
54870;BME280;40756;-37.950;145.008;2022-08-03T01:05:48;100003.23;;;16.46;39.46
54870;BME280;40756;-37.950;145.008;2022-08-03T01:08:27;100004.11;;;16.14;39.86
54870;BME280;40756;-37.950;145.008;2022-08-03T01:11:09;100001.04;;;16.54;39.06
54870;BME280;40756;-37.950;145.008;2022-08-03T01:13:47;99999.12;;;15.92;38.93
54870;BME280;40756;-37.950;145.008;2022-08-03T01:16:27;99993.79;;;15.77;38.57
54870;BME280;40756;-37.950;145.008;2022-08-03T01:19:10;100005.36;;;15.94;39.24
54870;BME280;40756;-37.950;145.008;2022-08-03T01:21:51;99994.92;;;15.75;39.31
54870;BME280;40756;-37.950;145.008;2022-08-03T01:24:33;99995.88;;;15.99;38.99
54870;BME280;40756;-37.950;145.008;2022-08-03T01:27:09;99987.80;;;16.44;38.57
54870;BME280;40756;-37.950;145.008;2022-08-03T01:30:13;99986.15;;;16.86;37.79
54870;BME280;40756;-37.950;145.008;2022-08-03T01:32:49;100000.70;;;16.77;37.20
54870;BME280;40756;-37.950;145.008;2022-08-03T01:35:25;100007.79;;;16.58;37.26
54870;BME280;40756;-37.950;145.008;2022-08-03T01:38:00;99994.31;;;16.63;37.55
54870;BME280;40756;-37.950;145.008;2022-08-03T01:40:33;99995.56;;;17.09;36.96
54870;BME280;40756;-37.950;145.008;2022-08-03T01:43:07;100006.30;;;17.13;36.44
54870;BME280;40756;-37.950;145.008;2022-08-03T01:45:40;99989.97;;;17.03;36.14
54870;BME280;40756;-37.950;145.008;2022-08-03T01:48:11;99983.67;;;16.88;35.77
54870;BME280;40756;-37.950;145.008;2022-08-03T01:50:45;99983.57;;;17.08;35.35
54870;BME280;40756;-37.950;145.008;2022-08-03T01:53:18;99980.50;;;17.16;35.29
54870;BME280;40756;-37.950;145.008;2022-08-03T01:55:51;99988.43;;;17.77;35.08
54870;BME280;40756;-37.950;145.008;2022-08-03T01:58:23;99982.50;;;17.69;35.17
54870;BME280;40756;-37.950;145.008;2022-08-03T02:00:56;99983.65;;;17.48;35.31
54870;BME280;40756;-37.950;145.008;2022-08-03T02:03:30;99974.01;;;17.12;35.18
54870;BME280;40756;-37.950;145.008;2022-08-03T02:06:01;99972.72;;;17.33;35.26
54870;BME280;40756;-37.950;145.008;2022-08-03T02:08:33;99983.20;;;17.00;35.68
54870;BME280;40756;-37.950;145.008;2022-08-03T02:11:03;99967.75;;;17.15;34.82
54870;BME280;40756;-37.950;145.008;2022-08-03T02:13:35;99963.77;;;17.46;34.88
54870;BME280;40756;-37.950;145.008;2022-08-03T02:16:05;99966.69;;;17.31;34.72
54870;BME280;40756;-37.950;145.008;2022-08-03T02:19:03;99960.70;;;17.94;34.67
54870;BME280;40756;-37.950;145.008;2022-08-03T02:21:35;99967.72;;;17.88;34.36
54870;BME280;40756;-37.950;145.008;2022-08-03T02:25:01;99956.62;;;17.84;33.87
54870;BME280;40756;-37.950;145.008;2022-08-03T02:27:34;99951.44;;;18.51;33.22
54870;BME280;40756;-37.950;145.008;2022-08-03T02:30:09;99959.37;;;17.86;33.45
54870;BME280;40756;-37.950;145.008;2022-08-03T02:32:41;99955.54;;;18.36;33.03
54870;BME280;40756;-37.950;145.008;2022-08-03T02:35:14;99952.61;;;17.90;32.94
54870;BME280;40756;-37.950;145.008;2022-08-03T02:37:51;99937.00;;;17.78;32.62
54870;BME280;40756;-37.950;145.008;2022-08-03T02:40:22;99941.93;;;18.31;31.97
54870;BME280;40756;-37.950;145.008;2022-08-03T02:42:56;99940.65;;;19.04;31.83
54870;BME280;40756;-37.950;145.008;2022-08-03T02:45:29;99931.02;;;19.26;31.34
54870;BME280;40756;-37.950;145.008;2022-08-03T02:48:03;99918.39;;;20.68;29.12
54870;BME280;40756;-37.950;145.008;2022-08-03T02:50:36;99916.51;;;19.93;28.45
54870;BME280;40756;-37.950;145.008;2022-08-03T02:53:24;99911.80;;;20.13;28.09
54870;BME280;40756;-37.950;145.008;2022-08-03T02:55:55;99900.36;;;20.12;27.87
54870;BME280;40756;-37.950;145.008;2022-08-03T02:58:26;99910.68;;;19.33;28.67
54870;BME280;40756;-37.950;145.008;2022-08-03T03:00:57;99903.95;;;18.61;29.78
54870;BME280;40756;-37.950;145.008;2022-08-03T03:03:28;99897.19;;;19.71;29.37
54870;BME280;40756;-37.950;145.008;2022-08-03T03:05:58;99888.06;;;19.62;29.12
54870;BME280;40756;-37.950;145.008;2022-08-03T03:11:05;99898.30;;;19.79;29.09
54870;BME280;40756;-37.950;145.008;2022-08-03T03:15:47;99893.82;;;19.94;28.69
54870;BME280;40756;-37.950;145.008;2022-08-03T03:18:17;99888.29;;;19.11;29.15
54870;BME280;40756;-37.950;145.008;2022-08-03T03:20:49;99884.92;;;19.48;29.05
54870;BME280;40756;-37.950;145.008;2022-08-03T03:23:21;99885.14;;;19.14;29.00
54870;BME280;40756;-37.950;145.008;2022-08-03T03:25:51;99884.31;;;20.08;28.49
54870;BME280;40756;-37.950;145.008;2022-08-03T03:28:22;99882.76;;;20.11;27.90
54870;BME280;40756;-37.950;145.008;2022-08-03T03:30:52;99880.71;;;19.50;28.28
54870;BME280;40756;-37.950;145.008;2022-08-03T03:33:22;99876.08;;;20.46;28.14
54870;BME280;40756;-37.950;145.008;2022-08-03T03:35:52;99873.58;;;20.31;27.41
54870;BME280;40756;-37.950;145.008;2022-08-03T03:38:21;99871.43;;;20.77;27.24
54870;BME280;40756;-37.950;145.008;2022-08-03T03:40:50;99865.34;;;21.27;26.60
54870;BME280;40756;-37.950;145.008;2022-08-03T03:43:23;99864.39;;;21.37;26.08
54870;BME280;40756;-37.950;145.008;2022-08-03T03:45:54;99855.28;;;21.49;25.87
54870;BME280;40756;-37.950;145.008;2022-08-03T03:48:25;99859.46;;;21.59;25.97
54870;BME280;40756;-37.950;145.008;2022-08-03T03:50:56;99857.71;;;21.06;25.71
54870;BME280;40756;-37.950;145.008;2022-08-03T03:53:26;99862.60;;;20.24;25.46
54870;BME280;40756;-37.950;145.008;2022-08-03T03:55:55;99866.02;;;21.12;25.32
54870;BME280;40756;-37.950;145.008;2022-08-03T03:58:24;99851.52;;;20.86;25.31
54870;BME280;40756;-37.950;145.008;2022-08-03T04:00:54;99862.84;;;20.57;25.07
54870;BME280;40756;-37.950;145.008;2022-08-03T04:03:23;99868.07;;;20.09;25.69
54870;BME280;40756;-37.950;145.008;2022-08-03T04:05:53;99863.46;;;20.59;25.75
54870;BME280;40756;-37.950;145.008;2022-08-03T04:08:22;99856.96;;;20.07;25.89
54870;BME280;40756;-37.950;145.008;2022-08-03T04:11:00;99856.90;;;20.73;25.65
54870;BME280;40756;-37.950;145.008;2022-08-03T04:13:34;99852.63;;;20.29;26.00
54870;BME280;40756;-37.950;145.008;2022-08-03T04:16:07;99856.25;;;19.76;26.14
54870;BME280;40756;-37.950;145.008;2022-08-03T04:18:40;99850.83;;;20.71;26.18
54870;BME280;40756;-37.950;145.008;2022-08-03T04:21:11;99857.46;;;20.60;25.26
54870;BME280;40756;-37.950;145.008;2022-08-03T04:23:46;99859.12;;;21.43;24.65
54870;BME280;40756;-37.950;145.008;2022-08-03T04:26:20;99862.58;;;21.72;24.15
54870;BME280;40756;-37.950;145.008;2022-08-03T04:28:50;99860.22;;;22.16;23.23
54870;BME280;40756;-37.950;145.008;2022-08-03T04:31:22;99860.45;;;21.32;23.06
54870;BME280;40756;-37.950;145.008;2022-08-03T04:33:54;99862.62;;;21.64;23.36
54870;BME280;40756;-37.950;145.008;2022-08-03T04:36:26;99868.60;;;21.48;23.76
54870;BME280;40756;-37.950;145.008;2022-08-03T04:39:02;99865.26;;;21.25;23.62
54870;BME280;40756;-37.950;145.008;2022-08-03T04:41:33;99872.72;;;20.88;24.37
54870;BME280;40756;-37.950;145.008;2022-08-03T04:44:05;99867.96;;;20.66;25.07
54870;BME280;40756;-37.950;145.008;2022-08-03T04:46:38;99869.99;;;21.25;24.48
54870;BME280;40756;-37.950;145.008;2022-08-03T04:49:08;99871.57;;;21.12;24.34
54870;BME280;40756;-37.950;145.008;2022-08-03T04:51:39;99867.83;;;20.70;23.87
54870;BME280;40756;-37.950;145.008;2022-08-03T04:54:12;99872.88;;;21.22;23.46
54870;BME280;40756;-37.950;145.008;2022-08-03T04:56:42;99881.21;;;21.02;23.67
54870;BME280;40756;-37.950;145.008;2022-08-03T04:59:12;99880.93;;;20.90;24.19
54870;BME280;40756;-37.950;145.008;2022-08-03T05:01:42;99885.81;;;20.32;24.50
54870;BME280;40756;-37.950;145.008;2022-08-03T05:04:11;99885.36;;;19.98;24.89
54870;BME280;40756;-37.950;145.008;2022-08-03T05:06:41;99885.96;;;20.45;25.02
54870;BME280;40756;-37.950;145.008;2022-08-03T05:09:10;99885.90;;;20.57;25.01
54870;BME280;40756;-37.950;145.008;2022-08-03T05:11:40;99884.11;;;20.26;25.61
54870;BME280;40756;-37.950;145.008;2022-08-03T05:14:09;99880.02;;;20.83;24.96
54870;BME280;40756;-37.950;145.008;2022-08-03T05:16:39;99883.20;;;21.19;24.72
54870;BME280;40756;-37.950;145.008;2022-08-03T05:19:08;99892.12;;;20.85;24.77
54870;BME280;40756;-37.950;145.008;2022-08-03T05:21:38;99879.87;;;21.07;24.27
54870;BME280;40756;-37.950;145.008;2022-08-03T05:24:07;99881.25;;;20.21;24.45
54870;BME280;40756;-37.950;145.008;2022-08-03T05:26:37;99881.26;;;20.68;23.99
54870;BME280;40756;-37.950;145.008;2022-08-03T05:29:06;99874.17;;;19.97;24.53
54870;BME280;40756;-37.950;145.008;2022-08-03T05:31:36;99871.95;;;20.71;23.95
54870;BME280;40756;-37.950;145.008;2022-08-03T05:34:05;99865.68;;;20.31;24.34
54870;BME280;40756;-37.950;145.008;2022-08-03T05:36:34;99865.30;;;20.69;23.69
54870;BME280;40756;-37.950;145.008;2022-08-03T05:39:04;99863.24;;;20.10;23.58
54870;BME280;40756;-37.950;145.008;2022-08-03T05:41:33;99861.69;;;20.96;23.68
54870;BME280;40756;-37.950;145.008;2022-08-03T05:44:03;99865.66;;;20.19;23.75
54870;BME280;40756;-37.950;145.008;2022-08-03T05:46:34;99863.00;;;20.84;23.31
54870;BME280;40756;-37.950;145.008;2022-08-03T05:49:04;99857.83;;;21.24;22.98
54870;BME280;40756;-37.950;145.008;2022-08-03T05:51:35;99849.38;;;22.68;22.16
54870;BME280;40756;-37.950;145.008;2022-08-03T05:54:04;99858.25;;;22.39;21.27
54870;BME280;40756;-37.950;145.008;2022-08-03T05:56:34;99861.05;;;22.02;21.75
54870;BME280;40756;-37.950;145.008;2022-08-03T05:59:03;99853.42;;;22.18;21.55
54870;BME280;40756;-37.950;145.008;2022-08-03T06:01:33;99853.38;;;22.15;21.66
54870;BME280;40756;-37.950;145.008;2022-08-03T06:04:03;99860.84;;;22.37;21.99
54870;BME280;40756;-37.950;145.008;2022-08-03T06:06:32;99858.70;;;21.36;22.14
54870;BME280;40756;-37.950;145.008;2022-08-03T06:09:02;99863.56;;;20.81;22.78
54870;BME280;40756;-37.950;145.008;2022-08-03T06:11:31;99858.13;;;20.50;22.97
54870;BME280;40756;-37.950;145.008;2022-08-03T06:14:01;99854.74;;;20.37;23.22
54870;BME280;40756;-37.950;145.008;2022-08-03T06:16:30;99850.76;;;20.59;23.35
54870;BME280;40756;-37.950;145.008;2022-08-03T06:19:00;99849.37;;;20.42;23.74
54870;BME280;40756;-37.950;145.008;2022-08-03T06:21:29;99855.55;;;20.48;23.79
54870;BME280;40756;-37.950;145.008;2022-08-03T06:23:58;99846.32;;;19.96;23.95
54870;BME280;40756;-37.950;145.008;2022-08-03T06:26:28;99847.66;;;19.89;24.29
54870;BME280;40756;-37.950;145.008;2022-08-03T06:28:58;99850.03;;;20.48;23.95
54870;BME280;40756;-37.950;145.008;2022-08-03T06:31:28;99834.97;;;20.89;23.62
54870;BME280;40756;-37.950;145.008;2022-08-03T06:33:58;99844.48;;;20.36;23.96
54870;BME280;40756;-37.950;145.008;2022-08-03T06:36:27;99834.10;;;22.28;22.55
54870;BME280;40756;-37.950;145.008;2022-08-03T06:38:56;99832.46;;;23.07;21.53
54870;BME280;40756;-37.950;145.008;2022-08-03T06:41:26;99827.70;;;23.30;21.12
54870;BME280;40756;-37.950;145.008;2022-08-03T06:43:55;99821.78;;;22.36;21.98
54870;BME280;40756;-37.950;145.008;2022-08-03T06:46:26;99821.31;;;22.81;21.82
54870;BME280;40756;-37.950;145.008;2022-08-03T06:48:56;99826.31;;;23.03;21.79
54870;BME280;40756;-37.950;145.008;2022-08-03T06:51:26;99824.03;;;21.97;22.78
54870;BME280;40756;-37.950;145.008;2022-08-03T06:53:56;99830.63;;;21.22;24.00
54870;BME280;40756;-37.950;145.008;2022-08-03T06:56:25;99829.61;;;20.92;24.53
54870;BME280;40756;-37.950;145.008;2022-08-03T06:58:55;99825.50;;;20.43;25.32
54870;BME280;40756;-37.950;145.008;2022-08-03T07:01:24;99836.58;;;19.79;26.10
54870;BME280;40756;-37.950;145.008;2022-08-03T07:03:55;99827.83;;;18.54;28.26
54870;BME280;40756;-37.950;145.008;2022-08-03T07:06:25;99835.99;;;19.06;29.06
54870;BME280;40756;-37.950;145.008;2022-08-03T07:08:54;99829.51;;;19.37;27.88
54870;BME280;40756;-37.950;145.008;2022-08-03T07:11:23;99831.84;;;18.36;28.60
54870;BME280;40756;-37.950;145.008;2022-08-03T07:13:53;99831.66;;;19.00;28.40
54870;BME280;40756;-37.950;145.008;2022-08-03T07:16:23;99839.29;;;18.55;29.41
54870;BME280;40756;-37.950;145.008;2022-08-03T07:18:52;99833.02;;;18.69;29.57
54870;BME280;40756;-37.950;145.008;2022-08-03T07:21:22;99829.57;;;18.35;29.35
54870;BME280;40756;-37.950;145.008;2022-08-03T07:23:52;99826.02;;;18.63;28.93
54870;BME280;40756;-37.950;145.008;2022-08-03T07:26:22;99827.52;;;18.84;29.10
54870;BME280;40756;-37.950;145.008;2022-08-03T07:28:51;99829.38;;;18.80;29.36
54870;BME280;40756;-37.950;145.008;2022-08-03T07:31:21;99830.68;;;18.75;29.58
54870;BME280;40756;-37.950;145.008;2022-08-03T07:33:50;99825.59;;;18.10;30.61
54870;BME280;40756;-37.950;145.008;2022-08-03T07:36:20;99809.79;;;18.50;30.75
54870;BME280;40756;-37.950;145.008;2022-08-03T07:38:49;99811.96;;;18.47;30.88
54870;BME280;40756;-37.950;145.008;2022-08-03T07:41:19;99814.89;;;18.83;30.96
54870;BME280;40756;-37.950;145.008;2022-08-03T07:43:49;99810.97;;;18.21;31.30
54870;BME280;40756;-37.950;145.008;2022-08-03T07:46:18;99813.35;;;18.50;31.40
54870;BME280;40756;-37.950;145.008;2022-08-03T07:48:48;99818.65;;;17.73;32.35
54870;BME280;40756;-37.950;145.008;2022-08-03T07:51:18;99816.34;;;17.63;32.84
54870;BME280;40756;-37.950;145.008;2022-08-03T07:53:48;99810.90;;;17.44;32.48
54870;BME280;40756;-37.950;145.008;2022-08-03T07:56:17;99807.50;;;17.99;32.43
54870;BME280;40756;-37.950;145.008;2022-08-03T07:58:47;99808.99;;;17.92;32.87
54870;BME280;40756;-37.950;145.008;2022-08-03T08:01:16;99812.83;;;17.45;33.54
54870;BME280;40756;-37.950;145.008;2022-08-03T08:03:46;99804.23;;;17.43;33.73
54870;BME280;40756;-37.950;145.008;2022-08-03T08:06:16;99803.12;;;16.80;34.62
54870;BME280;40756;-37.950;145.008;2022-08-03T08:08:46;99807.84;;;17.37;34.06
54870;BME280;40756;-37.950;145.008;2022-08-03T08:11:16;99805.28;;;17.73;33.83
54870;BME280;40756;-37.950;145.008;2022-08-03T08:13:45;99800.65;;;17.93;33.64
54870;BME280;40756;-37.950;145.008;2022-08-03T08:16:15;99803.73;;;17.72;33.71
54870;BME280;40756;-37.950;145.008;2022-08-03T08:18:44;99796.77;;;18.08;33.41
54870;BME280;40756;-37.950;145.008;2022-08-03T08:21:14;99803.79;;;18.10;33.78
54870;BME280;40756;-37.950;145.008;2022-08-03T08:23:44;99797.80;;;18.15;33.99
54870;BME280;40756;-37.950;145.008;2022-08-03T08:26:13;99799.60;;;18.24;34.23
54870;BME280;40756;-37.950;145.008;2022-08-03T08:28:43;99797.10;;;17.84;33.70
54870;BME280;40756;-37.950;145.008;2022-08-03T08:31:13;99792.15;;;18.07;33.88
54870;BME280;40756;-37.950;145.008;2022-08-03T08:33:42;99796.86;;;17.76;34.10
54870;BME280;40756;-37.950;145.008;2022-08-03T08:36:12;99804.31;;;17.68;34.10
54870;BME280;40756;-37.950;145.008;2022-08-03T08:38:42;99797.96;;;17.77;34.57
54870;BME280;40756;-37.950;145.008;2022-08-03T08:41:12;99800.26;;;18.08;34.93
54870;BME280;40756;-37.950;145.008;2022-08-03T08:43:43;99795.75;;;17.19;35.71
54870;BME280;40756;-37.950;145.008;2022-08-03T08:46:13;99803.87;;;17.33;35.72
54870;BME280;40756;-37.950;145.008;2022-08-03T08:48:44;99801.01;;;17.67;35.36
54870;BME280;40756;-37.950;145.008;2022-08-03T08:51:17;99802.08;;;17.36;35.89
54870;BME280;40756;-37.950;145.008;2022-08-03T08:53:52;99795.46;;;17.44;35.92
54870;BME280;40756;-37.950;145.008;2022-08-03T08:56:24;99797.43;;;17.20;36.37
54870;BME280;40756;-37.950;145.008;2022-08-03T08:58:57;99799.80;;;16.80;36.93
54870;BME280;40756;-37.950;145.008;2022-08-03T09:01:28;99795.53;;;17.39;36.48
54870;BME280;40756;-37.950;145.008;2022-08-03T09:03:57;99792.13;;;16.66;37.49
54870;BME280;40756;-37.950;145.008;2022-08-03T09:06:27;99798.58;;;17.61;36.70
54870;BME280;40756;-37.950;145.008;2022-08-03T09:08:56;99794.34;;;16.97;37.38
54870;BME280;40756;-37.950;145.008;2022-08-03T09:11:27;99795.49;;;17.00;37.27
54870;BME280;40756;-37.950;145.008;2022-08-03T09:13:57;99784.07;;;16.76;37.45
54870;BME280;40756;-37.950;145.008;2022-08-03T09:16:26;99782.21;;;16.50;37.83
54870;BME280;40756;-37.950;145.008;2022-08-03T09:19:02;99776.29;;;17.23;37.11
54870;BME280;40756;-37.950;145.008;2022-08-03T09:21:38;99770.96;;;17.33;36.93
54870;BME280;40756;-37.950;145.008;2022-08-03T09:24:09;99767.49;;;16.97;37.39
54870;BME280;40756;-37.950;145.008;2022-08-03T09:26:38;99756.55;;;17.48;36.82
54870;BME280;40756;-37.950;145.008;2022-08-03T09:29:10;99759.06;;;17.29;37.00
54870;BME280;40756;-37.950;145.008;2022-08-03T09:31:40;99753.53;;;17.49;36.65
54870;BME280;40756;-37.950;145.008;2022-08-03T09:34:13;99762.83;;;17.45;36.89
54870;BME280;40756;-37.950;145.008;2022-08-03T09:36:44;99760.67;;;16.92;37.73
54870;BME280;40756;-37.950;145.008;2022-08-03T09:39:16;99758.22;;;17.37;37.08
54870;BME280;40756;-37.950;145.008;2022-08-03T09:41:47;99758.04;;;17.58;37.05
54870;BME280;40756;-37.950;145.008;2022-08-03T09:44:17;99752.53;;;17.46;37.33
54870;BME280;40756;-37.950;145.008;2022-08-03T09:46:51;99759.17;;;17.26;37.47
54870;BME280;40756;-37.950;145.008;2022-08-03T09:49:21;99767.74;;;17.29;37.57
54870;BME280;40756;-37.950;145.008;2022-08-03T09:51:52;99774.02;;;17.38;37.52
54870;BME280;40756;-37.950;145.008;2022-08-03T09:54:27;99777.54;;;17.10;38.16
54870;BME280;40756;-37.950;145.008;2022-08-03T09:56:57;99772.46;;;16.90;38.37
54870;BME280;40756;-37.950;145.008;2022-08-03T09:59:28;99774.40;;;17.20;38.19
54870;BME280;40756;-37.950;145.008;2022-08-03T10:01:59;99780.03;;;17.23;38.29
54870;BME280;40756;-37.950;145.008;2022-08-03T10:04:29;99776.64;;;17.25;38.25
54870;BME280;40756;-37.950;145.008;2022-08-03T10:07:07;99776.86;;;16.80;39.09
54870;BME280;40756;-37.950;145.008;2022-08-03T10:09:39;99779.89;;;17.52;38.75
54870;BME280;40756;-37.950;145.008;2022-08-03T10:12:22;99782.59;;;17.31;38.76
54870;BME280;40756;-37.950;145.008;2022-08-03T10:14:53;99780.14;;;16.68;39.67
54870;BME280;40756;-37.950;145.008;2022-08-03T10:17:23;99780.63;;;16.82;39.66
54870;BME280;40756;-37.950;145.008;2022-08-03T10:19:53;99768.72;;;17.54;39.16
54870;BME280;40756;-37.950;145.008;2022-08-03T10:22:25;99771.90;;;16.75;39.90
54870;BME280;40756;-37.950;145.008;2022-08-03T10:24:58;99764.19;;;16.99;39.55
54870;BME280;40756;-37.950;145.008;2022-08-03T10:27:33;99766.21;;;17.29;39.15
54870;BME280;40756;-37.950;145.008;2022-08-03T10:30:07;99769.26;;;16.59;40.09
54870;BME280;40756;-37.950;145.008;2022-08-03T10:32:42;99772.53;;;16.88;39.68
54870;BME280;40756;-37.950;145.008;2022-08-03T10:35:14;99766.98;;;17.16;39.28
54870;BME280;40756;-37.950;145.008;2022-08-03T10:37:46;99765.77;;;17.05;39.33
54870;BME280;40756;-37.950;145.008;2022-08-03T10:40:21;99770.54;;;17.09;39.27
54870;BME280;40756;-37.950;145.008;2022-08-03T10:42:55;99776.35;;;17.63;38.86
54870;BME280;40756;-37.950;145.008;2022-08-03T10:45:26;99779.31;;;17.67;38.42
54870;BME280;40756;-37.950;145.008;2022-08-03T10:47:56;99790.83;;;17.17;38.92
54870;BME280;40756;-37.950;145.008;2022-08-03T10:50:27;99789.31;;;17.83;38.16
54870;BME280;40756;-37.950;145.008;2022-08-03T10:52:59;99791.34;;;16.94;38.91
54870;BME280;40756;-37.950;145.008;2022-08-03T10:55:31;99786.43;;;17.38;38.09
54870;BME280;40756;-37.950;145.008;2022-08-03T10:58:01;99781.59;;;17.46;38.33
54870;BME280;40756;-37.950;145.008;2022-08-03T11:00:48;99767.84;;;17.74;38.10
54870;BME280;40756;-37.950;145.008;2022-08-03T11:03:19;99757.94;;;17.69;37.84
54870;BME280;40756;-37.950;145.008;2022-08-03T11:05:55;99751.56;;;18.10;37.53
54870;BME280;40756;-37.950;145.008;2022-08-03T11:08:42;99747.28;;;18.26;37.32
54870;BME280;40756;-37.950;145.008;2022-08-03T11:11:27;99743.84;;;18.32;37.15
54870;BME280;40756;-37.950;145.008;2022-08-03T11:14:01;99732.54;;;17.82;37.13
54870;BME280;40756;-37.950;145.008;2022-08-03T11:16:32;99735.09;;;18.03;37.50
54870;BME280;40756;-37.950;145.008;2022-08-03T11:19:03;99733.21;;;17.99;36.70
54870;BME280;40756;-37.950;145.008;2022-08-03T11:22:05;99724.20;;;18.12;37.28
54870;BME280;40756;-37.950;145.008;2022-08-03T11:24:59;99727.64;;;17.49;36.87
54870;BME280;40756;-37.950;145.008;2022-08-03T11:27:32;99724.04;;;17.97;36.51
54870;BME280;40756;-37.950;145.008;2022-08-03T11:30:06;99715.87;;;18.09;36.17
54870;BME280;40756;-37.950;145.008;2022-08-03T11:33:08;99707.32;;;17.91;36.18
54870;BME280;40756;-37.950;145.008;2022-08-03T11:35:58;99698.22;;;18.18;36.25
54870;BME280;40756;-37.950;145.008;2022-08-03T11:38:28;99692.79;;;17.67;36.17
54870;BME280;40756;-37.950;145.008;2022-08-03T11:40:57;99682.01;;;17.86;36.03
54870;BME280;40756;-37.950;145.008;2022-08-03T11:43:59;99681.56;;;18.27;36.04
54870;BME280;40756;-37.950;145.008;2022-08-03T11:46:37;99678.40;;;18.16;35.88
54870;BME280;40756;-37.950;145.008;2022-08-03T11:49:07;99676.82;;;17.97;35.98
54870;BME280;40756;-37.950;145.008;2022-08-03T11:51:36;99670.34;;;18.48;35.96
54870;BME280;40756;-37.950;145.008;2022-08-03T11:54:07;99661.28;;;17.87;36.19
54870;BME280;40756;-37.950;145.008;2022-08-03T11:56:46;99660.76;;;18.33;35.92
54870;BME280;40756;-37.950;145.008;2022-08-03T11:59:17;99662.14;;;18.10;36.04
54870;BME280;40756;-37.950;145.008;2022-08-03T12:01:46;99663.42;;;18.20;35.75
54870;BME280;40756;-37.950;145.008;2022-08-03T12:04:15;99652.93;;;18.17;35.73
54870;BME280;40756;-37.950;145.008;2022-08-03T12:06:59;99648.59;;;18.40;35.87
54870;BME280;40756;-37.950;145.008;2022-08-03T12:09:29;99646.77;;;18.27;36.14
54870;BME280;40756;-37.950;145.008;2022-08-03T12:11:59;99637.61;;;18.42;36.22
54870;BME280;40756;-37.950;145.008;2022-08-03T12:14:29;99640.65;;;18.30;36.54
54870;BME280;40756;-37.950;145.008;2022-08-03T12:16:59;99628.79;;;18.01;37.14
54870;BME280;40756;-37.950;145.008;2022-08-03T12:19:42;99623.72;;;18.00;36.96
54870;BME280;40756;-37.950;145.008;2022-08-03T12:22:11;99616.16;;;18.08;37.32
54870;BME280;40756;-37.950;145.008;2022-08-03T12:24:42;99608.14;;;18.02;37.26
54870;BME280;40756;-37.950;145.008;2022-08-03T12:27:13;99594.65;;;18.08;37.16
54870;BME280;40756;-37.950;145.008;2022-08-03T12:29:53;99580.69;;;17.71;37.58
54870;BME280;40756;-37.950;145.008;2022-08-03T12:32:22;99575.43;;;18.14;37.35
54870;BME280;40756;-37.950;145.008;2022-08-03T12:34:53;99564.00;;;17.75;37.71
54870;BME280;40756;-37.950;145.008;2022-08-03T12:37:23;99555.49;;;18.01;37.79
54870;BME280;40756;-37.950;145.008;2022-08-03T12:39:55;99547.99;;;17.56;37.74
54870;BME280;40756;-37.950;145.008;2022-08-03T12:42:32;99540.12;;;18.09;37.76
54870;BME280;40756;-37.950;145.008;2022-08-03T12:45:18;99533.54;;;18.09;37.53
54870;BME280;40756;-37.950;145.008;2022-08-03T12:47:53;99521.74;;;18.19;37.56
54870;BME280;40756;-37.950;145.008;2022-08-03T12:50:30;99514.58;;;18.17;37.49
54870;BME280;40756;-37.950;145.008;2022-08-03T12:53:00;99506.58;;;18.38;37.35
54870;BME280;40756;-37.950;145.008;2022-08-03T12:55:34;99489.81;;;18.42;37.10
54870;BME280;40756;-37.950;145.008;2022-08-03T12:58:04;99479.49;;;17.96;37.50